Time,TemperatureF,DewpointF,PressureIn,WindDirection,WindDirectionDegrees,WindSpeedMPH,WindSpeedGustMPH,Humidity,HourlyPrecipIn,Conditions,Clouds,dailyrainin,SoftwareType,DateUTC
2013-02-17 00:02:00,20.0,11.0,30.18,NNW,340,0.0,0.0,66,0.00,,,0.00,,2013-02-17 05:02:00,
2013-02-17 00:12:00,20.0,11.0,30.18,NNW,340,0.0,0.0,67,0.00,,,0.00,,2013-02-17 05:12:00,
2013-02-17 00:22:00,20.0,11.0,30.18,NNW,340,0.0,0.0,67,0.00,,,0.00,,2013-02-17 05:22:00,
2013-02-17 00:33:00,20.0,11.0,30.18,NNW,340,0.0,0.0,69,0.00,,,0.00,,2013-02-17 05:33:00,
2013-02-17 00:42:00,20.0,11.0,30.18,NNW,340,0.0,0.0,69,0.00,,,0.00,,2013-02-17 05:42:00,
2013-02-17 00:52:00,20.0,11.0,30.18,NNW,340,0.0,0.0,69,0.00,,,0.00,,2013-02-17 05:52:00,
2013-02-17 01:02:00,20.0,12.0,30.18,NNW,340,0.0,0.0,70,0.00,,,0.00,,2013-02-17 06:02:00,
2013-02-17 01:11:00,20.0,12.0,30.18,NNW,340,0.0,0.0,70,0.00,,,0.00,,2013-02-17 06:11:00,
2013-02-17 01:21:00,20.0,12.0,30.18,NNW,340,0.0,0.0,72,0.00,,,0.00,,2013-02-17 06:21:00,
2013-02-17 01:32:00,20.0,13.0,30.18,NNW,340,0.0,0.0,73,0.00,,,0.00,,2013-02-17 06:32:00,
2013-02-17 01:42:00,20.0,13.0,30.18,NNW,340,0.0,0.0,73,0.00,,,0.00,,2013-02-17 06:42:00,
2013-02-17 01:51:00,20.0,13.0,30.18,NNW,340,0.0,0.0,73,0.00,,,0.00,,2013-02-17 06:51:00,
2013-02-17 02:01:00,20.0,13.0,30.19,NNW,340,0.0,0.0,75,0.00,,,0.00,,2013-02-17 07:01:00,
2013-02-17 02:11:00,20.0,13.0,30.18,NNW,340,0.0,0.0,75,0.00,,,0.00,,2013-02-17 07:11:00,
2013-02-17 02:21:00,20.0,13.0,30.18,NNW,340,0.0,0.0,75,0.00,,,0.00,,2013-02-17 07:21:00,
2013-02-17 02:32:00,20.0,14.0,30.19,NNW,340,0.0,0.0,76,0.00,,,0.00,,2013-02-17 07:32:00,
2013-02-17 02:41:00,20.0,14.0,30.19,NNW,340,0.0,0.0,76,0.00,,,0.00,,2013-02-17 07:41:00,
2013-02-17 02:51:00,20.0,14.0,30.19,NNW,340,0.0,0.0,78,0.00,,,0.00,,2013-02-17 07:51:00,
2013-02-17 03:01:00,20.0,14.0,30.19,NNW,340,0.0,0.0,78,0.00,,,0.00,,2013-02-17 08:01:00,
2013-02-17 03:11:00,20.0,14.0,30.19,NNW,340,0.0,0.0,78,0.00,,,0.00,,2013-02-17 08:11:00,
2013-02-17 03:21:00,20.0,15.0,30.19,NNW,340,0.0,0.0,79,0.00,,,0.00,,2013-02-17 08:21:00,
2013-02-17 03:32:00,20.0,15.0,30.19,North,354,0.0,0.0,79,0.00,,,0.00,,2013-02-17 08:32:00,
2013-02-17 03:42:00,20.0,15.0,30.19,North,354,0.0,0.0,79,0.00,,,0.00,,2013-02-17 08:42:00,
2013-02-17 03:52:00,20.0,15.0,30.19,North,0,0.0,0.0,79,0.00,,,0.00,,2013-02-17 08:52:00,
2013-02-17 04:02:00,19.0,14.0,30.19,North,356,1.0,7.0,81,0.00,,,0.00,,2013-02-17 09:02:00,
2013-02-17 04:11:00,19.0,14.0,30.19,North,356,1.0,7.0,81,0.00,,,0.00,,2013-02-17 09:11:00,
2013-02-17 04:21:00,19.0,14.0,30.19,North,11,1.0,3.0,81,0.00,,,0.00,,2013-02-17 09:21:00,
2013-02-17 04:32:00,19.0,14.0,30.19,North,0,3.0,6.0,81,0.00,,,0.00,,2013-02-17 09:32:00,
2013-02-17 04:42:00,19.0,14.0,30.19,North,0,3.0,6.0,81,0.00,,,0.00,,2013-02-17 09:42:00,
2013-02-17 04:51:00,18.0,13.0,30.19,North,11,0.0,0.0,82,0.00,,,0.00,,2013-02-17 09:51:00,
2013-02-17 05:01:00,18.0,13.0,30.20,North,3,0.0,0.0,82,0.00,,,0.00,,2013-02-17 10:01:00,
2013-02-17 05:11:00,18.0,13.0,30.20,North,3,2.0,5.0,82,0.00,,,0.00,,2013-02-17 10:11:00,
2013-02-17 05:21:00,18.0,13.0,30.20,North,3,2.0,5.0,82,0.00,,,0.00,,2013-02-17 10:21:00,
2013-02-17 05:32:00,17.0,13.0,30.20,North,6,0.0,0.0,84,0.00,,,0.00,,2013-02-17 10:32:00,
2013-02-17 05:42:00,17.0,13.0,30.20,North,6,0.0,0.0,84,0.00,,,0.00,,2013-02-17 10:42:00,
2013-02-17 05:52:00,17.0,13.0,30.20,North,6,0.0,0.0,84,0.00,,,0.00,,2013-02-17 10:52:00,
2013-02-17 06:01:00,16.0,12.0,30.21,North,8,0.0,0.0,84,0.00,,,0.00,,2013-02-17 11:01:00,
2013-02-17 06:11:00,16.0,12.0,30.21,North,8,0.0,0.0,84,0.00,,,0.00,,2013-02-17 11:11:00,
2013-02-17 06:21:00,17.0,13.0,30.21,North,8,0.0,0.0,84,0.00,,,0.00,,2013-02-17 11:21:00,
2013-02-17 06:32:00,17.0,13.0,30.22,North,349,0.0,0.0,85,0.00,,,0.00,,2013-02-17 11:32:00,
2013-02-17 06:42:00,17.0,13.0,30.22,North,349,0.0,0.0,85,0.00,,,0.00,,2013-02-17 11:42:00,
2013-02-17 06:52:00,16.0,12.0,30.22,North,349,0.0,0.0,85,0.00,,,0.00,,2013-02-17 11:52:00,
2013-02-17 07:03:00,16.0,12.0,30.23,NNE,13,0.0,0.0,85,0.00,,,0.00,,2013-02-17 12:03:00,
2013-02-17 07:11:00,16.0,12.0,30.23,NNE,13,0.0,0.0,85,0.00,,,0.00,,2013-02-17 12:11:00,
2013-02-17 07:22:00,15.0,11.0,30.23,NNE,13,0.0,0.0,85,0.00,,,0.00,,2013-02-17 12:22:00,
2013-02-17 07:32:00,16.0,12.0,30.24,NNE,13,0.0,0.0,85,0.00,,,0.00,,2013-02-17 12:32:00,
2013-02-17 07:42:00,16.0,12.0,30.24,NNE,13,0.0,0.0,85,0.00,,,0.00,,2013-02-17 12:42:00,
2013-02-17 07:52:00,16.0,12.0,30.24,NNE,13,0.0,0.0,85,0.00,,,0.00,,2013-02-17 12:52:00,
2013-02-17 08:02:00,16.0,13.0,30.26,NNE,13,0.0,0.0,87,0.00,,,0.00,,2013-02-17 13:02:00,
2013-02-17 08:12:00,16.0,13.0,30.26,NNE,13,0.0,0.0,87,0.00,,,0.00,,2013-02-17 13:12:00,
2013-02-17 08:22:00,15.0,12.0,30.26,NNE,13,0.0,0.0,87,0.00,,,0.00,,2013-02-17 13:22:00,
2013-02-17 08:32:00,15.0,12.0,30.26,NNW,343,0.0,5.0,87,0.00,,,0.00,,2013-02-17 13:32:00,
2013-02-17 08:41:00,15.0,12.0,30.26,NNW,343,0.0,5.0,87,0.00,,,0.00,,2013-02-17 13:41:00,
2013-02-17 08:51:00,16.0,13.0,30.27,North,4,0.0,0.0,87,0.00,,,0.00,,2013-02-17 13:51:00,
2013-02-17 09:01:00,16.0,13.0,30.27,NNW,346,5.0,6.0,87,0.00,,,0.00,,2013-02-17 14:01:00,
2013-02-17 09:11:00,16.0,13.0,30.27,NNW,346,5.0,6.0,87,0.00,,,0.00,,2013-02-17 14:11:00,
2013-02-17 09:21:00,16.0,12.0,30.27,North,356,6.0,7.0,85,0.00,,,0.00,,2013-02-17 14:21:00,
2013-02-17 09:32:00,17.0,13.0,30.28,North,7,0.0,1.0,85,0.00,,,0.00,,2013-02-17 14:32:00,
2013-02-17 09:42:00,17.0,13.0,30.28,North,7,0.0,1.0,85,0.00,,,0.00,,2013-02-17 14:42:00,
2013-02-17 09:52:00,18.0,14.0,30.29,North,3,6.0,7.0,84,0.00,,,0.00,,2013-02-17 14:52:00,
2013-02-17 10:02:00,18.0,13.0,30.29,North,349,0.0,0.0,82,0.00,,,0.00,,2013-02-17 15:02:00,
2013-02-17 10:11:00,18.0,13.0,30.29,North,349,0.0,0.0,82,0.00,,,0.00,,2013-02-17 15:11:00,
2013-02-17 10:21:00,19.0,14.0,30.29,North,349,0.0,0.0,82,0.00,,,0.00,,2013-02-17 15:21:00,
2013-02-17 10:32:00,20.0,15.0,30.30,SSW,206,0.0,0.0,79,0.00,,,0.00,,2013-02-17 15:32:00,
2013-02-17 10:42:00,20.0,15.0,30.30,SSW,206,0.0,0.0,79,0.00,,,0.00,,2013-02-17 15:42:00,
2013-02-17 10:52:00,20.0,14.0,30.30,West,264,0.0,0.0,78,0.00,,,0.00,,2013-02-17 15:52:00,
2013-02-17 11:01:00,21.0,14.0,30.30,North,350,0.0,0.0,73,0.00,,,0.00,,2013-02-17 16:01:00,
2013-02-17 11:11:00,21.0,14.0,30.30,North,350,0.0,0.0,73,0.00,,,0.00,,2013-02-17 16:11:00,
2013-02-17 11:21:00,22.0,14.0,30.30,ESE,112,0.0,0.0,72,0.00,,,0.00,,2013-02-17 16:21:00,
2013-02-17 11:32:00,23.0,13.0,30.30,NNE,27,0.0,0.0,66,0.00,,,0.00,,2013-02-17 16:32:00,
2013-02-17 11:42:00,23.0,13.0,30.30,NNE,27,0.0,0.0,66,0.00,,,0.00,,2013-02-17 16:42:00,
2013-02-17 11:51:00,23.0,13.0,30.30,WSW,254,0.0,0.0,66,0.00,,,0.00,,2013-02-17 16:51:00,
2013-02-17 12:02:00,24.0,13.0,30.30,NNW,329,0.0,2.0,62,0.00,,,0.00,,2013-02-17 17:02:00,
2013-02-17 12:11:00,24.0,13.0,30.30,NNW,329,0.0,2.0,62,0.00,,,0.00,,2013-02-17 17:11:00,
2013-02-17 12:21:00,24.0,13.0,30.31,NNE,28,1.0,6.0,61,0.00,,,0.00,,2013-02-17 17:21:00,
2013-02-17 12:32:00,25.0,12.0,30.30,SW,229,0.0,0.0,58,0.00,,,0.00,,2013-02-17 17:32:00,
2013-02-17 12:42:00,25.0,12.0,30.30,SW,229,0.0,0.0,58,0.00,,,0.00,,2013-02-17 17:42:00,
2013-02-17 12:52:00,26.0,13.0,30.30,SSW,203,1.0,2.0,57,0.00,,,0.00,,2013-02-17 17:52:00,
2013-02-17 13:02:00,27.0,13.0,30.29,WSW,237,0.0,0.0,55,0.00,,,0.00,,2013-02-17 18:02:00,
2013-02-17 13:11:00,27.0,12.0,30.29,North,357,2.0,6.0,52,0.00,,,0.00,,2013-02-17 18:11:00,
2013-02-17 13:22:00,27.0,12.0,30.29,North,357,2.0,6.0,52,0.00,,,0.00,,2013-02-17 18:22:00,
2013-02-17 13:33:00,27.0,11.0,30.28,WSW,238,6.0,12.0,50,0.00,,,0.00,,2013-02-17 18:33:00,
2013-02-17 13:42:00,27.0,11.0,30.28,WSW,238,6.0,12.0,50,0.00,,,0.00,,2013-02-17 18:42:00,
2013-02-17 13:52:00,28.0,11.0,30.28,SW,228,1.0,6.0,49,0.00,,,0.00,,2013-02-17 18:52:00,
2013-02-17 14:02:00,28.0,11.0,30.28,WSW,250,0.0,6.0,48,0.00,,,0.00,,2013-02-17 19:02:00,
2013-02-17 14:11:00,29.0,11.0,30.28,NW,322,0.0,0.0,47,0.00,,,0.00,,2013-02-17 19:11:00,
2013-02-17 14:21:00,29.0,11.0,30.28,NW,322,0.0,0.0,47,0.00,,,0.00,,2013-02-17 19:21:00,
2013-02-17 14:32:00,30.0,12.0,30.27,West,281,1.0,5.0,46,0.00,,,0.00,,2013-02-17 19:32:00,
2013-02-17 14:42:00,30.0,12.0,30.27,West,281,1.0,5.0,46,0.00,,,0.00,,2013-02-17 19:42:00,
2013-02-17 14:51:00,30.0,11.0,30.27,West,277,0.0,0.0,44,0.00,,,0.00,,2013-02-17 19:51:00,
2013-02-17 15:02:00,30.0,10.0,30.27,SSW,200,2.0,6.0,43,0.00,,,0.00,,2013-02-17 20:02:00,
2013-02-17 15:11:00,30.0,10.0,30.27,SSW,200,2.0,6.0,43,0.00,,,0.00,,2013-02-17 20:11:00,
2013-02-17 15:22:00,30.0,10.0,30.27,SSW,212,3.0,7.0,43,0.00,,,0.00,,2013-02-17 20:22:00,
2013-02-17 15:32:00,31.0,10.0,30.27,SSW,199,1.0,7.0,41,0.00,,,0.00,,2013-02-17 20:32:00,
2013-02-17 15:42:00,31.0,10.0,30.27,SSW,199,1.0,7.0,41,0.00,,,0.00,,2013-02-17 20:42:00,
2013-02-17 15:52:00,31.0,10.0,30.27,SW,233,2.0,5.0,40,0.00,,,0.00,,2013-02-17 20:52:00,
2013-02-17 16:02:00,31.0,8.0,30.27,West,270,0.0,0.0,38,0.00,,,0.00,,2013-02-17 21:02:00,
2013-02-17 16:11:00,31.0,8.0,30.27,West,270,0.0,0.0,38,0.00,,,0.00,,2013-02-17 21:11:00,
2013-02-17 16:21:00,31.0,8.0,30.26,North,1,1.0,3.0,37,0.00,,,0.00,,2013-02-17 21:21:00,
2013-02-17 16:32:00,32.0,8.0,30.26,WSW,237,3.0,6.0,36,0.00,,,0.00,,2013-02-17 21:32:00,
2013-02-17 16:42:00,32.0,8.0,30.26,WSW,237,3.0,6.0,36,0.00,,,0.00,,2013-02-17 21:42:00,
2013-02-17 16:52:00,32.0,7.0,30.26,West,265,2.0,5.0,35,0.00,,,0.00,,2013-02-17 21:52:00,
2013-02-17 17:01:00,31.0,7.0,30.26,North,4,0.0,0.0,35,0.00,,,0.00,,2013-02-17 22:01:00,
2013-02-17 17:12:00,31.0,7.0,30.26,North,4,0.0,0.0,35,0.00,,,0.00,,2013-02-17 22:12:00,
2013-02-17 17:22:00,31.0,7.0,30.26,WSW,237,0.0,0.0,35,0.00,,,0.00,,2013-02-17 22:22:00,
2013-02-17 17:32:00,31.0,8.0,30.26,WNW,284,0.0,2.0,37,0.00,,,0.00,,2013-02-17 22:32:00,
2013-02-17 17:42:00,31.0,8.0,30.26,WNW,284,0.0,2.0,37,0.00,,,0.00,,2013-02-17 22:42:00,
2013-02-17 17:52:00,31.0,8.0,30.26,WNW,288,0.0,0.0,37,0.00,,,0.00,,2013-02-17 22:52:00,
2013-02-17 18:02:00,30.0,7.0,30.26,WSW,243,0.0,0.0,37,0.00,,,0.00,,2013-02-17 23:02:00,
2013-02-17 18:11:00,30.0,7.0,30.26,WSW,243,0.0,0.0,37,0.00,,,0.00,,2013-02-17 23:11:00,
2013-02-17 18:21:00,31.0,8.0,30.26,WSW,243,0.0,0.0,37,0.00,,,0.00,,2013-02-17 23:21:00,
2013-02-17 18:32:00,29.0,6.0,30.26,WNW,288,0.0,0.0,37,0.00,,,0.00,,2013-02-17 23:32:00,
2013-02-17 18:42:00,29.0,6.0,30.26,WNW,288,0.0,0.0,37,0.00,,,0.00,,2013-02-17 23:42:00,
2013-02-17 18:52:00,30.0,8.0,30.26,WNW,288,0.0,0.0,38,0.00,,,0.00,,2013-02-17 23:52:00,
2013-02-17 19:02:00,29.0,7.0,30.27,WNW,288,0.0,0.0,39,0.00,,,0.00,,2013-02-18 00:02:00,
2013-02-17 19:11:00,29.0,7.0,30.27,WNW,288,0.0,0.0,39,0.00,,,0.00,,2013-02-18 00:11:00,
2013-02-17 19:22:00,29.0,7.0,30.27,WNW,288,0.0,0.0,39,0.00,,,0.00,,2013-02-18 00:22:00,
2013-02-17 19:32:00,29.0,7.0,30.27,WNW,288,0.0,0.0,39,0.00,,,0.00,,2013-02-18 00:32:00,
2013-02-17 19:41:00,29.0,7.0,30.27,WNW,288,0.0,0.0,39,0.00,,,0.00,,2013-02-18 00:41:00,